sensor_id;sensor_type;location;lat;lon;timestamp;P1;durP1;ratioP1;P2;durP2;ratioP2
69207;SDS011;70114;47.690;8.898;2023-09-12T00:00:15;10.53;;;5.77;;
69207;SDS011;70114;47.690;8.898;2023-09-12T00:02:41;10.70;;;6.20;;
69207;SDS011;70114;47.690;8.898;2023-09-12T00:05:06;9.43;;;5.38;;
69207;SDS011;70114;47.690;8.898;2023-09-12T00:07:32;13.30;;;6.20;;
69207;SDS011;70114;47.690;8.898;2023-09-12T00:09:57;11.00;;;6.30;;
69207;SDS011;70114;47.690;8.898;2023-09-12T00:12:23;12.90;;;6.27;;
69207;SDS011;70114;47.690;8.898;2023-09-12T00:14:52;12.15;;;6.80;;
69207;SDS011;70114;47.690;8.898;2023-09-12T00:17:17;11.57;;;6.53;;
69207;SDS011;70114;47.690;8.898;2023-09-12T00:19:43;10.40;;;5.67;;
69207;SDS011;70114;47.690;8.898;2023-09-12T00:22:08;9.73;;;5.60;;
69207;SDS011;70114;47.690;8.898;2023-09-12T00:24:33;11.87;;;6.17;;
69207;SDS011;70114;47.690;8.898;2023-09-12T00:26:59;10.33;;;5.73;;
69207;SDS011;70114;47.690;8.898;2023-09-12T00:29:24;10.73;;;6.13;;
69207;SDS011;70114;47.690;8.898;2023-09-12T00:31:50;11.67;;;6.70;;
69207;SDS011;70114;47.690;8.898;2023-09-12T00:34:15;12.30;;;7.00;;
69207;SDS011;70114;47.690;8.898;2023-09-12T00:36:42;12.03;;;6.50;;
69207;SDS011;70114;47.690;8.898;2023-09-12T00:39:07;12.48;;;6.60;;
69207;SDS011;70114;47.690;8.898;2023-09-12T00:41:32;12.97;;;6.67;;
69207;SDS011;70114;47.690;8.898;2023-09-12T00:43:58;11.93;;;7.00;;
69207;SDS011;70114;47.690;8.898;2023-09-12T00:46:23;11.50;;;6.93;;
69207;SDS011;70114;47.690;8.898;2023-09-12T00:48:49;11.40;;;6.53;;
69207;SDS011;70114;47.690;8.898;2023-09-12T00:51:17;12.77;;;6.78;;
69207;SDS011;70114;47.690;8.898;2023-09-12T00:53:45;12.02;;;6.55;;
69207;SDS011;70114;47.690;8.898;2023-09-12T00:56:11;11.67;;;6.73;;
69207;SDS011;70114;47.690;8.898;2023-09-12T00:58:37;12.98;;;6.82;;
69207;SDS011;70114;47.690;8.898;2023-09-12T01:01:03;11.07;;;6.30;;
69207;SDS011;70114;47.690;8.898;2023-09-12T01:03:29;11.27;;;6.40;;
69207;SDS011;70114;47.690;8.898;2023-09-12T01:05:55;12.27;;;7.13;;
69207;SDS011;70114;47.690;8.898;2023-09-12T01:08:22;12.40;;;7.00;;
69207;SDS011;70114;47.690;8.898;2023-09-12T01:10:48;12.93;;;7.37;;
69207;SDS011;70114;47.690;8.898;2023-09-12T01:13:14;11.82;;;6.90;;
69207;SDS011;70114;47.690;8.898;2023-09-12T01:15:40;11.50;;;7.00;;
69207;SDS011;70114;47.690;8.898;2023-09-12T01:18:06;11.18;;;6.50;;
69207;SDS011;70114;47.690;8.898;2023-09-12T01:20:33;11.52;;;5.90;;
69207;SDS011;70114;47.690;8.898;2023-09-12T01:28:43;11.73;;;6.07;;
69207;SDS011;70114;47.690;8.898;2023-09-12T01:31:10;11.88;;;6.75;;
69207;SDS011;70114;47.690;8.898;2023-09-12T01:33:39;11.45;;;5.88;;
69207;SDS011;70114;47.690;8.898;2023-09-12T01:36:05;10.57;;;5.82;;
69207;SDS011;70114;47.690;8.898;2023-09-12T01:38:30;11.10;;;6.00;;
69207;SDS011;70114;47.690;8.898;2023-09-12T01:40:55;10.90;;;6.17;;
69207;SDS011;70114;47.690;8.898;2023-09-12T01:43:22;11.53;;;5.97;;
69207;SDS011;70114;47.690;8.898;2023-09-12T01:45:53;10.27;;;5.90;;
69207;SDS011;70114;47.690;8.898;2023-09-12T01:48:21;10.82;;;6.20;;
69207;SDS011;70114;47.690;8.898;2023-09-12T01:50:48;12.02;;;6.15;;
69207;SDS011;70114;47.690;8.898;2023-09-12T01:53:14;10.93;;;6.07;;
69207;SDS011;70114;47.690;8.898;2023-09-12T01:55:43;10.60;;;5.57;;
69207;SDS011;70114;47.690;8.898;2023-09-12T01:58:11;11.38;;;5.82;;
69207;SDS011;70114;47.690;8.898;2023-09-12T02:00:37;11.43;;;5.85;;
69207;SDS011;70114;47.690;8.898;2023-09-12T02:03:03;11.68;;;6.35;;
69207;SDS011;70114;47.690;8.898;2023-09-12T02:05:29;10.70;;;5.70;;
69207;SDS011;70114;47.690;8.898;2023-09-12T02:07:54;11.30;;;6.03;;
69207;SDS011;70114;47.690;8.898;2023-09-12T02:10:20;12.25;;;6.40;;
69207;SDS011;70114;47.690;8.898;2023-09-12T02:12:45;9.90;;;5.33;;
69207;SDS011;70114;47.690;8.898;2023-09-12T02:15:11;10.87;;;6.17;;
69207;SDS011;70114;47.690;8.898;2023-09-12T02:17:37;11.85;;;6.28;;
69207;SDS011;70114;47.690;8.898;2023-09-12T02:20:04;10.70;;;6.18;;
69207;SDS011;70114;47.690;8.898;2023-09-12T02:22:31;13.05;;;6.50;;
69207;SDS011;70114;47.690;8.898;2023-09-12T02:24:57;12.43;;;6.10;;
69207;SDS011;70114;47.690;8.898;2023-09-12T02:27:22;11.00;;;5.97;;
69207;SDS011;70114;47.690;8.898;2023-09-12T02:29:47;11.60;;;6.20;;
69207;SDS011;70114;47.690;8.898;2023-09-12T02:32:13;11.17;;;6.20;;
69207;SDS011;70114;47.690;8.898;2023-09-12T02:34:39;10.48;;;5.35;;
69207;SDS011;70114;47.690;8.898;2023-09-12T02:37:04;10.80;;;6.00;;
69207;SDS011;70114;47.690;8.898;2023-09-12T02:39:29;10.83;;;5.77;;
69207;SDS011;70114;47.690;8.898;2023-09-12T02:41:55;10.45;;;5.50;;
69207;SDS011;70114;47.690;8.898;2023-09-12T02:44:20;11.00;;;5.57;;
69207;SDS011;70114;47.690;8.898;2023-09-12T02:46:46;11.10;;;5.60;;
69207;SDS011;70114;47.690;8.898;2023-09-12T02:49:11;12.63;;;5.67;;
69207;SDS011;70114;47.690;8.898;2023-09-12T02:51:39;10.87;;;5.97;;
69207;SDS011;70114;47.690;8.898;2023-09-12T02:54:06;10.05;;;5.80;;
69207;SDS011;70114;47.690;8.898;2023-09-12T02:56:31;11.35;;;6.28;;
69207;SDS011;70114;47.690;8.898;2023-09-12T02:58:57;12.40;;;6.30;;
69207;SDS011;70114;47.690;8.898;2023-09-12T03:01:22;12.17;;;6.20;;
69207;SDS011;70114;47.690;8.898;2023-09-12T03:03:51;11.02;;;6.07;;
69207;SDS011;70114;47.690;8.898;2023-09-12T03:06:16;10.57;;;5.63;;
69207;SDS011;70114;47.690;8.898;2023-09-12T03:08:43;14.13;;;5.95;;
69207;SDS011;70114;47.690;8.898;2023-09-12T03:11:09;10.65;;;6.82;;
69207;SDS011;70114;47.690;8.898;2023-09-12T03:13:39;10.75;;;6.07;;
69207;SDS011;70114;47.690;8.898;2023-09-12T03:16:09;11.43;;;6.03;;
69207;SDS011;70114;47.690;8.898;2023-09-12T03:18:35;11.95;;;6.05;;
69207;SDS011;70114;47.690;8.898;2023-09-12T03:21:00;11.60;;;5.97;;
69207;SDS011;70114;47.690;8.898;2023-09-12T03:23:25;11.75;;;5.60;;
69207;SDS011;70114;47.690;8.898;2023-09-12T03:25:52;12.50;;;6.50;;
69207;SDS011;70114;47.690;8.898;2023-09-12T03:28:17;11.75;;;6.38;;
69207;SDS011;70114;47.690;8.898;2023-09-12T03:30:43;10.50;;;6.00;;
69207;SDS011;70114;47.690;8.898;2023-09-12T03:33:08;11.30;;;6.27;;
69207;SDS011;70114;47.690;8.898;2023-09-12T03:35:34;11.20;;;6.00;;
69207;SDS011;70114;47.690;8.898;2023-09-12T03:37:59;11.35;;;6.00;;
69207;SDS011;70114;47.690;8.898;2023-09-12T03:40:27;11.18;;;6.43;;
69207;SDS011;70114;47.690;8.898;2023-09-12T03:42:54;12.13;;;7.13;;
69207;SDS011;70114;47.690;8.898;2023-09-12T03:45:19;12.10;;;6.65;;
69207;SDS011;70114;47.690;8.898;2023-09-12T03:47:45;12.30;;;6.60;;
69207;SDS011;70114;47.690;8.898;2023-09-12T03:50:11;12.65;;;6.47;;
69207;SDS011;70114;47.690;8.898;2023-09-12T03:52:38;12.83;;;7.10;;
69207;SDS011;70114;47.690;8.898;2023-09-12T03:55:03;12.57;;;6.93;;
69207;SDS011;70114;47.690;8.898;2023-09-12T03:57:29;12.20;;;6.43;;
69207;SDS011;70114;47.690;8.898;2023-09-12T03:59:54;13.37;;;6.70;;
69207;SDS011;70114;47.690;8.898;2023-09-12T04:02:19;11.40;;;6.30;;
69207;SDS011;70114;47.690;8.898;2023-09-12T04:04:45;13.23;;;6.68;;
69207;SDS011;70114;47.690;8.898;2023-09-12T04:07:10;12.53;;;7.00;;
69207;SDS011;70114;47.690;8.898;2023-09-12T04:09:35;12.93;;;6.77;;
69207;SDS011;70114;47.690;8.898;2023-09-12T04:12:01;12.57;;;6.67;;
69207;SDS011;70114;47.690;8.898;2023-09-12T04:14:26;11.30;;;6.45;;
69207;SDS011;70114;47.690;8.898;2023-09-12T04:16:52;13.63;;;6.73;;
69207;SDS011;70114;47.690;8.898;2023-09-12T04:19:17;13.03;;;7.23;;
69207;SDS011;70114;47.690;8.898;2023-09-12T04:21:42;11.93;;;6.70;;
69207;SDS011;70114;47.690;8.898;2023-09-12T04:24:08;12.97;;;6.67;;
69207;SDS011;70114;47.690;8.898;2023-09-12T04:26:34;11.60;;;6.77;;
69207;SDS011;70114;47.690;8.898;2023-09-12T04:29:00;13.73;;;7.43;;
69207;SDS011;70114;47.690;8.898;2023-09-12T04:31:25;12.73;;;7.17;;
69207;SDS011;70114;47.690;8.898;2023-09-12T04:33:51;12.20;;;7.03;;
69207;SDS011;70114;47.690;8.898;2023-09-12T04:36:17;13.25;;;6.72;;
69207;SDS011;70114;47.690;8.898;2023-09-12T04:38:43;13.33;;;7.00;;
69207;SDS011;70114;47.690;8.898;2023-09-12T04:41:08;13.43;;;7.07;;
69207;SDS011;70114;47.690;8.898;2023-09-12T04:43:34;12.40;;;7.23;;
69207;SDS011;70114;47.690;8.898;2023-09-12T04:46:00;14.30;;;7.78;;
69207;SDS011;70114;47.690;8.898;2023-09-12T04:48:25;13.47;;;7.20;;
69207;SDS011;70114;47.690;8.898;2023-09-12T04:50:51;12.67;;;7.27;;
69207;SDS011;70114;47.690;8.898;2023-09-12T04:53:16;13.70;;;7.40;;
69207;SDS011;70114;47.690;8.898;2023-09-12T04:55:42;13.60;;;7.72;;
69207;SDS011;70114;47.690;8.898;2023-09-12T04:58:07;13.03;;;7.37;;
69207;SDS011;70114;47.690;8.898;2023-09-12T05:00:33;15.90;;;7.70;;
69207;SDS011;70114;47.690;8.898;2023-09-12T05:02:58;12.65;;;6.93;;
69207;SDS011;70114;47.690;8.898;2023-09-12T05:05:25;14.97;;;7.63;;
69207;SDS011;70114;47.690;8.898;2023-09-12T05:07:50;15.07;;;8.05;;
69207;SDS011;70114;47.690;8.898;2023-09-12T05:10:18;15.37;;;7.73;;
69207;SDS011;70114;47.690;8.898;2023-09-12T05:12:44;12.68;;;7.25;;
69207;SDS011;70114;47.690;8.898;2023-09-12T05:15:10;15.20;;;7.70;;
69207;SDS011;70114;47.690;8.898;2023-09-12T05:17:35;14.50;;;8.13;;
69207;SDS011;70114;47.690;8.898;2023-09-12T05:20:00;14.17;;;7.57;;
69207;SDS011;70114;47.690;8.898;2023-09-12T05:22:26;14.95;;;8.18;;
69207;SDS011;70114;47.690;8.898;2023-09-12T05:24:53;14.60;;;7.97;;
69207;SDS011;70114;47.690;8.898;2023-09-12T05:27:18;15.37;;;8.17;;
69207;SDS011;70114;47.690;8.898;2023-09-12T05:29:43;14.20;;;7.80;;
69207;SDS011;70114;47.690;8.898;2023-09-12T05:32:09;14.73;;;8.23;;
69207;SDS011;70114;47.690;8.898;2023-09-12T05:34:34;16.17;;;8.33;;
69207;SDS011;70114;47.690;8.898;2023-09-12T05:37:00;16.10;;;8.47;;
69207;SDS011;70114;47.690;8.898;2023-09-12T05:39:25;14.52;;;8.15;;
69207;SDS011;70114;47.690;8.898;2023-09-12T05:41:50;14.43;;;8.37;;
69207;SDS011;70114;47.690;8.898;2023-09-12T05:44:16;16.83;;;9.47;;
69207;SDS011;70114;47.690;8.898;2023-09-12T05:46:46;15.55;;;8.90;;
69207;SDS011;70114;47.690;8.898;2023-09-12T05:49:13;15.25;;;8.38;;
69207;SDS011;70114;47.690;8.898;2023-09-12T05:51:39;17.73;;;8.40;;
69207;SDS011;70114;47.690;8.898;2023-09-12T05:54:05;15.25;;;8.32;;
69207;SDS011;70114;47.690;8.898;2023-09-12T05:56:30;15.80;;;8.50;;
69207;SDS011;70114;47.690;8.898;2023-09-12T05:58:56;16.75;;;8.73;;
69207;SDS011;70114;47.690;8.898;2023-09-12T06:01:21;15.37;;;8.43;;
69207;SDS011;70114;47.690;8.898;2023-09-12T06:03:46;15.33;;;9.40;;
69207;SDS011;70114;47.690;8.898;2023-09-12T06:06:12;15.93;;;9.30;;
69207;SDS011;70114;47.690;8.898;2023-09-12T06:08:37;17.15;;;8.70;;
69207;SDS011;70114;47.690;8.898;2023-09-12T06:11:03;15.07;;;9.07;;
69207;SDS011;70114;47.690;8.898;2023-09-12T06:13:29;15.25;;;9.07;;
69207;SDS011;70114;47.690;8.898;2023-09-12T06:15:55;14.93;;;8.83;;
69207;SDS011;70114;47.690;8.898;2023-09-12T06:18:20;16.73;;;8.53;;
69207;SDS011;70114;47.690;8.898;2023-09-12T06:20:46;16.05;;;8.77;;
69207;SDS011;70114;47.690;8.898;2023-09-12T06:23:11;16.60;;;7.83;;
69207;SDS011;70114;47.690;8.898;2023-09-12T06:25:37;16.43;;;7.87;;
69207;SDS011;70114;47.690;8.898;2023-09-12T06:28:02;13.18;;;7.13;;
69207;SDS011;70114;47.690;8.898;2023-09-12T06:30:28;15.37;;;7.40;;
69207;SDS011;70114;47.690;8.898;2023-09-12T06:32:54;16.05;;;7.70;;
69207;SDS011;70114;47.690;8.898;2023-09-12T06:35:19;15.97;;;7.43;;
69207;SDS011;70114;47.690;8.898;2023-09-12T06:37:44;14.93;;;7.67;;
69207;SDS011;70114;47.690;8.898;2023-09-12T06:40:12;15.55;;;7.35;;
69207;SDS011;70114;47.690;8.898;2023-09-12T06:42:37;17.43;;;8.13;;
69207;SDS011;70114;47.690;8.898;2023-09-12T06:45:03;15.70;;;7.67;;
69207;SDS011;70114;47.690;8.898;2023-09-12T06:47:28;17.13;;;7.70;;
69207;SDS011;70114;47.690;8.898;2023-09-12T06:49:54;15.10;;;7.77;;
69207;SDS011;70114;47.690;8.898;2023-09-12T06:52:19;16.83;;;7.73;;
69207;SDS011;70114;47.690;8.898;2023-09-12T06:54:45;13.90;;;7.68;;
69207;SDS011;70114;47.690;8.898;2023-09-12T06:57:10;13.27;;;7.40;;
69207;SDS011;70114;47.690;8.898;2023-09-12T06:59:35;14.20;;;8.27;;
69207;SDS011;70114;47.690;8.898;2023-09-12T07:02:01;13.50;;;7.73;;
69207;SDS011;70114;47.690;8.898;2023-09-12T07:04:26;13.02;;;7.22;;
69207;SDS011;70114;47.690;8.898;2023-09-12T07:06:52;13.40;;;7.50;;
69207;SDS011;70114;47.690;8.898;2023-09-12T07:09:17;13.53;;;7.73;;
69207;SDS011;70114;47.690;8.898;2023-09-12T07:11:44;14.30;;;8.02;;
69207;SDS011;70114;47.690;8.898;2023-09-12T07:14:09;13.77;;;7.90;;
69207;SDS011;70114;47.690;8.898;2023-09-12T07:16:35;13.03;;;7.73;;
69207;SDS011;70114;47.690;8.898;2023-09-12T07:19:00;13.48;;;7.63;;
69207;SDS011;70114;47.690;8.898;2023-09-12T07:21:26;11.97;;;7.43;;
69207;SDS011;70114;47.690;8.898;2023-09-12T07:23:51;11.90;;;7.27;;
69207;SDS011;70114;47.690;8.898;2023-09-12T07:26:17;12.10;;;7.43;;
69207;SDS011;70114;47.690;8.898;2023-09-12T07:28:42;12.87;;;7.50;;
69207;SDS011;70114;47.690;8.898;2023-09-12T07:31:08;12.43;;;7.50;;
69207;SDS011;70114;47.690;8.898;2023-09-12T07:33:33;12.52;;;7.72;;
69207;SDS011;70114;47.690;8.898;2023-09-12T07:35:59;13.23;;;7.03;;
69207;SDS011;70114;47.690;8.898;2023-09-12T07:38:25;13.25;;;7.63;;
69207;SDS011;70114;47.690;8.898;2023-09-12T07:40:51;12.75;;;7.63;;
69207;SDS011;70114;47.690;8.898;2023-09-12T07:43:17;13.87;;;7.90;;
69207;SDS011;70114;47.690;8.898;2023-09-12T07:45:42;12.50;;;7.73;;
69207;SDS011;70114;47.690;8.898;2023-09-12T07:48:09;12.90;;;7.38;;
69207;SDS011;70114;47.690;8.898;2023-09-12T07:50:36;13.82;;;8.48;;
69207;SDS011;70114;47.690;8.898;2023-09-12T07:53:03;12.75;;;7.82;;
69207;SDS011;70114;47.690;8.898;2023-09-12T07:55:30;13.73;;;8.27;;
69207;SDS011;70114;47.690;8.898;2023-09-12T07:57:59;12.50;;;7.70;;
69207;SDS011;70114;47.690;8.898;2023-09-12T08:00:25;11.93;;;7.73;;
69207;SDS011;70114;47.690;8.898;2023-09-12T08:02:50;12.50;;;7.22;;
69207;SDS011;70114;47.690;8.898;2023-09-12T08:05:16;13.43;;;7.73;;
69207;SDS011;70114;47.690;8.898;2023-09-12T08:07:41;12.07;;;7.77;;
69207;SDS011;70114;47.690;8.898;2023-09-12T08:10:07;13.15;;;8.15;;
69207;SDS011;70114;47.690;8.898;2023-09-12T08:12:32;13.90;;;8.33;;
69207;SDS011;70114;47.690;8.898;2023-09-12T08:14:58;14.20;;;9.23;;
69207;SDS011;70114;47.690;8.898;2023-09-12T08:17:24;15.05;;;9.38;;
69207;SDS011;70114;47.690;8.898;2023-09-12T08:19:50;15.13;;;9.32;;
69207;SDS011;70114;47.690;8.898;2023-09-12T08:22:16;14.83;;;9.47;;
69207;SDS011;70114;47.690;8.898;2023-09-12T08:24:42;14.30;;;9.07;;
69207;SDS011;70114;47.690;8.898;2023-09-12T08:27:07;13.93;;;8.40;;
69207;SDS011;70114;47.690;8.898;2023-09-12T08:29:34;14.55;;;9.40;;
69207;SDS011;70114;47.690;8.898;2023-09-12T08:32:00;13.77;;;8.70;;
69207;SDS011;70114;47.690;8.898;2023-09-12T08:34:26;14.55;;;8.77;;
69207;SDS011;70114;47.690;8.898;2023-09-12T08:36:51;14.50;;;8.60;;
69207;SDS011;70114;47.690;8.898;2023-09-12T08:39:18;13.93;;;8.30;;
69207;SDS011;70114;47.690;8.898;2023-09-12T08:41:49;14.23;;;8.20;;
69207;SDS011;70114;47.690;8.898;2023-09-12T08:44:15;12.63;;;8.52;;
69207;SDS011;70114;47.690;8.898;2023-09-12T08:46:41;13.07;;;7.90;;
69207;SDS011;70114;47.690;8.898;2023-09-12T08:49:08;12.52;;;7.72;;
69207;SDS011;70114;47.690;8.898;2023-09-12T08:51:37;13.15;;;7.60;;
69207;SDS011;70114;47.690;8.898;2023-09-12T08:54:04;12.57;;;7.27;;
69207;SDS011;70114;47.690;8.898;2023-09-12T08:56:30;12.95;;;7.75;;
69207;SDS011;70114;47.690;8.898;2023-09-12T08:58:58;14.00;;;7.90;;
69207;SDS011;70114;47.690;8.898;2023-09-12T09:01:25;12.00;;;7.75;;
69207;SDS011;70114;47.690;8.898;2023-09-12T09:03:53;11.43;;;7.35;;
69207;SDS011;70114;47.690;8.898;2023-09-12T09:06:19;13.17;;;8.10;;
69207;SDS011;70114;47.690;8.898;2023-09-12T09:08:46;13.15;;;8.32;;
69207;SDS011;70114;47.690;8.898;2023-09-12T09:11:13;13.98;;;7.50;;
69207;SDS011;70114;47.690;8.898;2023-09-12T09:13:38;12.30;;;7.77;;
69207;SDS011;70114;47.690;8.898;2023-09-12T09:18:53;13.52;;;8.05;;
69207;SDS011;70114;47.690;8.898;2023-09-12T09:21:20;11.05;;;7.30;;
69207;SDS011;70114;47.690;8.898;2023-09-12T09:23:49;11.33;;;7.53;;
69207;SDS011;70114;47.690;8.898;2023-09-12T09:26:15;11.70;;;7.25;;
69207;SDS011;70114;47.690;8.898;2023-09-12T09:28:40;11.57;;;7.00;;
69207;SDS011;70114;47.690;8.898;2023-09-12T09:31:10;12.25;;;8.07;;
69207;SDS011;70114;47.690;8.898;2023-09-12T09:33:36;12.43;;;7.53;;
69207;SDS011;70114;47.690;8.898;2023-09-12T09:36:04;11.93;;;7.50;;
69207;SDS011;70114;47.690;8.898;2023-09-12T09:38:31;11.70;;;7.70;;
69207;SDS011;70114;47.690;8.898;2023-09-12T09:40:56;14.73;;;8.07;;
69207;SDS011;70114;47.690;8.898;2023-09-12T09:43:22;12.80;;;7.93;;
69207;SDS011;70114;47.690;8.898;2023-09-12T09:45:49;11.20;;;7.32;;
69207;SDS011;70114;47.690;8.898;2023-09-12T09:48:18;11.90;;;6.83;;
69207;SDS011;70114;47.690;8.898;2023-09-12T09:50:44;12.18;;;7.22;;
69207;SDS011;70114;47.690;8.898;2023-09-12T09:53:09;12.50;;;7.70;;
69207;SDS011;70114;47.690;8.898;2023-09-12T09:55:35;12.43;;;7.28;;
69207;SDS011;70114;47.690;8.898;2023-09-12T09:58:01;12.27;;;7.23;;
69207;SDS011;70114;47.690;8.898;2023-09-12T10:00:28;11.00;;;7.13;;
69207;SDS011;70114;47.690;8.898;2023-09-12T10:02:54;12.80;;;7.20;;
69207;SDS011;70114;47.690;8.898;2023-09-12T10:05:21;12.15;;;7.88;;
69207;SDS011;70114;47.690;8.898;2023-09-12T10:07:48;11.43;;;7.60;;
69207;SDS011;70114;47.690;8.898;2023-09-12T10:10:17;12.00;;;8.10;;
69207;SDS011;70114;47.690;8.898;2023-09-12T10:12:51;11.68;;;7.38;;
69207;SDS011;70114;47.690;8.898;2023-09-12T10:15:23;11.75;;;7.95;;
69207;SDS011;70114;47.690;8.898;2023-09-12T10:17:57;13.40;;;8.15;;
69207;SDS011;70114;47.690;8.898;2023-09-12T10:20:42;15.00;;;8.02;;
69207;SDS011;70114;47.690;8.898;2023-09-12T10:23:20;13.37;;;7.80;;
69207;SDS011;70114;47.690;8.898;2023-09-12T10:25:52;11.90;;;7.43;;
69207;SDS011;70114;47.690;8.898;2023-09-12T10:28:19;11.90;;;7.60;;
69207;SDS011;70114;47.690;8.898;2023-09-12T10:30:46;11.80;;;7.47;;
69207;SDS011;70114;47.690;8.898;2023-09-12T10:33:12;12.07;;;7.38;;
69207;SDS011;70114;47.690;8.898;2023-09-12T10:35:39;11.87;;;7.37;;
69207;SDS011;70114;47.690;8.898;2023-09-12T10:38:05;11.30;;;7.22;;
69207;SDS011;70114;47.690;8.898;2023-09-12T10:40:35;12.23;;;7.30;;
69207;SDS011;70114;47.690;8.898;2023-09-12T10:43:02;15.68;;;7.57;;
69207;SDS011;70114;47.690;8.898;2023-09-12T10:45:31;11.77;;;7.38;;
69207;SDS011;70114;47.690;8.898;2023-09-12T10:47:57;11.90;;;7.73;;
69207;SDS011;70114;47.690;8.898;2023-09-12T10:50:23;10.77;;;7.00;;
69207;SDS011;70114;47.690;8.898;2023-09-12T10:52:48;10.87;;;7.20;;
69207;SDS011;70114;47.690;8.898;2023-09-12T10:55:17;11.17;;;7.10;;
69207;SDS011;70114;47.690;8.898;2023-09-12T11:00:30;12.60;;;7.40;;
69207;SDS011;70114;47.690;8.898;2023-09-12T11:03:00;11.70;;;7.30;;
69207;SDS011;70114;47.690;8.898;2023-09-12T11:05:54;12.90;;;7.23;;
69207;SDS011;70114;47.690;8.898;2023-09-12T11:08:21;11.65;;;6.63;;
69207;SDS011;70114;47.690;8.898;2023-09-12T11:11:16;11.70;;;6.78;;
69207;SDS011;70114;47.690;8.898;2023-09-12T11:13:43;10.00;;;6.30;;
69207;SDS011;70114;47.690;8.898;2023-09-12T11:16:11;11.80;;;6.18;;
69207;SDS011;70114;47.690;8.898;2023-09-12T11:21:43;9.52;;;6.07;;
69207;SDS011;70114;47.690;8.898;2023-09-12T11:24:09;11.77;;;6.28;;
69207;SDS011;70114;47.690;8.898;2023-09-12T11:26:51;11.10;;;5.50;;
69207;SDS011;70114;47.690;8.898;2023-09-12T11:29:19;11.88;;;5.80;;
69207;SDS011;70114;47.690;8.898;2023-09-12T11:31:51;9.23;;;5.93;;
69207;SDS011;70114;47.690;8.898;2023-09-12T11:34:19;11.80;;;6.95;;
69207;SDS011;70114;47.690;8.898;2023-09-12T11:36:45;11.23;;;6.13;;
69207;SDS011;70114;47.690;8.898;2023-09-12T11:39:24;11.25;;;6.25;;
69207;SDS011;70114;47.690;8.898;2023-09-12T11:41:53;10.18;;;6.22;;
69207;SDS011;70114;47.690;8.898;2023-09-12T11:44:20;9.73;;;6.23;;
69207;SDS011;70114;47.690;8.898;2023-09-12T11:46:47;10.10;;;6.10;;
69207;SDS011;70114;47.690;8.898;2023-09-12T11:49:14;9.30;;;6.03;;
69207;SDS011;70114;47.690;8.898;2023-09-12T11:51:53;10.87;;;5.83;;
69207;SDS011;70114;47.690;8.898;2023-09-12T11:54:19;10.07;;;6.37;;
69207;SDS011;70114;47.690;8.898;2023-09-12T11:56:49;11.30;;;6.28;;
69207;SDS011;70114;47.690;8.898;2023-09-12T11:59:21;10.20;;;6.13;;
69207;SDS011;70114;47.690;8.898;2023-09-12T12:01:48;11.70;;;6.55;;
69207;SDS011;70114;47.690;8.898;2023-09-12T12:04:13;10.93;;;6.33;;
69207;SDS011;70114;47.690;8.898;2023-09-12T12:06:40;11.73;;;6.57;;
69207;SDS011;70114;47.690;8.898;2023-09-12T12:09:06;10.10;;;6.43;;
69207;SDS011;70114;47.690;8.898;2023-09-12T12:11:31;11.77;;;6.93;;
69207;SDS011;70114;47.690;8.898;2023-09-12T12:13:57;10.80;;;6.53;;
69207;SDS011;70114;47.690;8.898;2023-09-12T12:16:24;10.63;;;6.10;;
69207;SDS011;70114;47.690;8.898;2023-09-12T12:18:50;10.25;;;6.47;;
69207;SDS011;70114;47.690;8.898;2023-09-12T12:21:20;11.52;;;7.07;;
69207;SDS011;70114;47.690;8.898;2023-09-12T12:23:45;11.27;;;7.10;;
69207;SDS011;70114;47.690;8.898;2023-09-12T12:26:11;12.03;;;6.70;;
69207;SDS011;70114;47.690;8.898;2023-09-12T12:28:37;12.95;;;7.20;;
69207;SDS011;70114;47.690;8.898;2023-09-12T12:31:02;11.20;;;7.13;;
69207;SDS011;70114;47.690;8.898;2023-09-12T12:33:28;10.63;;;7.03;;
69207;SDS011;70114;47.690;8.898;2023-09-12T12:36:04;10.77;;;6.95;;
69207;SDS011;70114;47.690;8.898;2023-09-12T12:38:36;10.07;;;6.93;;
69207;SDS011;70114;47.690;8.898;2023-09-12T12:41:02;12.50;;;7.38;;
69207;SDS011;70114;47.690;8.898;2023-09-12T12:43:28;11.17;;;7.00;;
69207;SDS011;70114;47.690;8.898;2023-09-12T12:45:55;11.68;;;7.45;;
69207;SDS011;70114;47.690;8.898;2023-09-12T12:48:34;12.40;;;7.47;;
69207;SDS011;70114;47.690;8.898;2023-09-12T12:51:19;11.67;;;7.40;;
69207;SDS011;70114;47.690;8.898;2023-09-12T12:53:54;11.63;;;7.20;;
69207;SDS011;70114;47.690;8.898;2023-09-12T12:56:27;11.25;;;7.10;;
69207;SDS011;70114;47.690;8.898;2023-09-12T12:58:54;10.35;;;6.93;;
69207;SDS011;70114;47.690;8.898;2023-09-12T13:01:22;11.20;;;7.10;;
69207;SDS011;70114;47.690;8.898;2023-09-12T13:03:47;10.87;;;7.33;;
69207;SDS011;70114;47.690;8.898;2023-09-12T13:06:15;9.75;;;7.05;;
69207;SDS011;70114;47.690;8.898;2023-09-12T13:08:42;11.07;;;7.38;;
69207;SDS011;70114;47.690;8.898;2023-09-12T13:11:12;11.73;;;7.47;;
69207;SDS011;70114;47.690;8.898;2023-09-12T13:13:39;10.38;;;6.70;;
69207;SDS011;70114;47.690;8.898;2023-09-12T13:16:05;10.13;;;6.85;;
69207;SDS011;70114;47.690;8.898;2023-09-12T13:18:34;10.60;;;6.78;;
69207;SDS011;70114;47.690;8.898;2023-09-12T13:21:03;11.05;;;7.30;;
69207;SDS011;70114;47.690;8.898;2023-09-12T13:23:29;10.10;;;7.17;;
69207;SDS011;70114;47.690;8.898;2023-09-12T13:25:55;11.80;;;7.38;;
69207;SDS011;70114;47.690;8.898;2023-09-12T13:28:22;11.00;;;7.82;;
69207;SDS011;70114;47.690;8.898;2023-09-12T13:30:53;11.23;;;7.60;;
69207;SDS011;70114;47.690;8.898;2023-09-12T13:33:19;12.70;;;7.45;;
69207;SDS011;70114;47.690;8.898;2023-09-12T13:35:46;10.30;;;7.60;;
69207;SDS011;70114;47.690;8.898;2023-09-12T13:38:13;11.57;;;7.32;;
69207;SDS011;70114;47.690;8.898;2023-09-12T13:40:39;10.43;;;6.37;;
69207;SDS011;70114;47.690;8.898;2023-09-12T13:43:05;10.00;;;6.32;;
69207;SDS011;70114;47.690;8.898;2023-09-12T13:45:31;10.57;;;6.53;;
69207;SDS011;70114;47.690;8.898;2023-09-12T13:47:57;9.33;;;6.30;;
69207;SDS011;70114;47.690;8.898;2023-09-12T13:50:26;10.50;;;6.50;;
69207;SDS011;70114;47.690;8.898;2023-09-12T13:52:55;10.25;;;6.80;;
69207;SDS011;70114;47.690;8.898;2023-09-12T13:55:21;10.25;;;6.63;;
69207;SDS011;70114;47.690;8.898;2023-09-12T13:57:47;10.45;;;6.68;;
69207;SDS011;70114;47.690;8.898;2023-09-12T14:00:13;13.07;;;7.17;;
69207;SDS011;70114;47.690;8.898;2023-09-12T14:02:38;12.57;;;6.53;;
69207;SDS011;70114;47.690;8.898;2023-09-12T14:05:04;11.63;;;7.17;;
69207;SDS011;70114;47.690;8.898;2023-09-12T14:07:29;11.57;;;6.60;;
69207;SDS011;70114;47.690;8.898;2023-09-12T14:09:55;12.73;;;6.83;;
69207;SDS011;70114;47.690;8.898;2023-09-12T14:12:22;11.00;;;7.15;;
69207;SDS011;70114;47.690;8.898;2023-09-12T14:14:48;10.65;;;7.30;;
69207;SDS011;70114;47.690;8.898;2023-09-12T14:17:13;9.90;;;6.67;;
69207;SDS011;70114;47.690;8.898;2023-09-12T14:19:39;10.82;;;7.03;;
69207;SDS011;70114;47.690;8.898;2023-09-12T14:22:05;11.50;;;7.10;;
69207;SDS011;70114;47.690;8.898;2023-09-12T14:24:30;11.07;;;7.13;;
69207;SDS011;70114;47.690;8.898;2023-09-12T14:26:55;11.30;;;6.90;;
69207;SDS011;70114;47.690;8.898;2023-09-12T14:29:21;12.07;;;7.07;;
69207;SDS011;70114;47.690;8.898;2023-09-12T14:31:46;11.13;;;7.00;;
69207;SDS011;70114;47.690;8.898;2023-09-12T14:34:17;11.40;;;7.10;;
69207;SDS011;70114;47.690;8.898;2023-09-12T14:36:43;11.37;;;7.17;;
69207;SDS011;70114;47.690;8.898;2023-09-12T14:39:11;11.73;;;6.87;;
69207;SDS011;70114;47.690;8.898;2023-09-12T14:41:36;12.18;;;6.95;;
69207;SDS011;70114;47.690;8.898;2023-09-12T14:44:02;10.67;;;6.97;;
69207;SDS011;70114;47.690;8.898;2023-09-12T14:46:27;12.18;;;7.47;;